sensor_id;sensor_type;location;lat;lon;timestamp;pressure;altitude;pressure_sealevel;temperature;humidity
20394;BME280;10356;50.544;9.642;2022-10-16T00:02:08;98013.38;;;13.84;100.00
20394;BME280;10356;50.544;9.642;2022-10-16T00:04:35;98007.88;;;13.87;100.00
20394;BME280;10356;50.544;9.642;2022-10-16T00:07:01;97999.88;;;13.88;100.00
20394;BME280;10356;50.544;9.642;2022-10-16T00:09:28;98010.66;;;13.85;100.00
20394;BME280;10356;50.544;9.642;2022-10-16T00:11:54;98017.03;;;13.73;100.00
20394;BME280;10356;50.544;9.642;2022-10-16T00:14:21;98015.25;;;13.64;100.00
20394;BME280;10356;50.544;9.642;2022-10-16T00:16:49;98025.59;;;13.66;100.00
20394;BME280;10356;50.544;9.642;2022-10-16T00:19:15;98025.84;;;13.72;100.00
20394;BME280;10356;50.544;9.642;2022-10-16T00:21:41;98011.25;;;13.70;100.00
20394;BME280;10356;50.544;9.642;2022-10-16T00:24:09;98018.47;;;13.58;100.00
20394;BME280;10356;50.544;9.642;2022-10-16T00:26:37;98015.16;;;13.56;100.00
20394;BME280;10356;50.544;9.642;2022-10-16T00:29:04;98016.72;;;13.49;100.00
20394;BME280;10356;50.544;9.642;2022-10-16T00:31:31;98016.72;;;13.49;100.00
20394;BME280;10356;50.544;9.642;2022-10-16T00:33:58;98013.09;;;13.50;100.00
20394;BME280;10356;50.544;9.642;2022-10-16T00:36:26;98022.63;;;13.51;100.00
20394;BME280;10356;50.544;9.642;2022-10-16T00:38:54;98022.63;;;13.41;100.00
20394;BME280;10356;50.544;9.642;2022-10-16T00:41:22;98023.22;;;13.26;100.00
20394;BME280;10356;50.544;9.642;2022-10-16T00:43:50;98022.53;;;13.24;100.00
20394;BME280;10356;50.544;9.642;2022-10-16T00:46:19;98020.91;;;13.23;100.00
20394;BME280;10356;50.544;9.642;2022-10-16T00:48:50;98018.84;;;13.17;100.00
20394;BME280;10356;50.544;9.642;2022-10-16T00:51:23;98015.41;;;13.16;100.00
20394;BME280;10356;50.544;9.642;2022-10-16T00:53:52;98018.59;;;13.10;100.00
20394;BME280;10356;50.544;9.642;2022-10-16T00:56:18;98009.22;;;13.08;100.00
20394;BME280;10356;50.544;9.642;2022-10-16T00:58:45;98012.13;;;13.05;100.00
20394;BME280;10356;50.544;9.642;2022-10-16T01:01:12;98022.97;;;13.00;100.00
20394;BME280;10356;50.544;9.642;2022-10-16T01:03:38;98026.28;;;13.02;100.00
20394;BME280;10356;50.544;9.642;2022-10-16T01:06:18;98033.69;;;12.97;100.00
20394;BME280;10356;50.544;9.642;2022-10-16T01:08:58;98036.75;;;12.93;100.00
20394;BME280;10356;50.544;9.642;2022-10-16T01:11:33;98033.06;;;13.05;100.00
20394;BME280;10356;50.544;9.642;2022-10-16T01:14:06;98032.44;;;13.01;100.00
20394;BME280;10356;50.544;9.642;2022-10-16T01:16:41;98032.91;;;12.97;100.00
20394;BME280;10356;50.544;9.642;2022-10-16T01:19:12;98038.13;;;12.97;100.00
20394;BME280;10356;50.544;9.642;2022-10-16T01:21:41;98034.94;;;13.03;100.00
20394;BME280;10356;50.544;9.642;2022-10-16T01:24:17;98036.47;;;13.05;100.00
20394;BME280;10356;50.544;9.642;2022-10-16T01:29:46;98037.84;;;13.09;100.00
20394;BME280;10356;50.544;9.642;2022-10-16T01:32:17;98043.06;;;13.09;100.00
20394;BME280;10356;50.544;9.642;2022-10-16T01:34:49;98041.84;;;13.04;100.00
20394;BME280;10356;50.544;9.642;2022-10-16T01:37:31;98031.81;;;13.09;100.00
20394;BME280;10356;50.544;9.642;2022-10-16T01:40:00;98038.38;;;13.03;100.00
20394;BME280;10356;50.544;9.642;2022-10-16T01:42:32;98042.69;;;13.04;100.00
20394;BME280;10356;50.544;9.642;2022-10-16T01:45:01;98047.34;;;13.01;100.00
20394;BME280;10356;50.544;9.642;2022-10-16T01:47:29;98049.53;;;12.96;100.00
20394;BME280;10356;50.544;9.642;2022-10-16T01:49:57;98050.78;;;12.92;100.00
20394;BME280;10356;50.544;9.642;2022-10-16T01:52:26;98043.91;;;12.91;100.00
20394;BME280;10356;50.544;9.642;2022-10-16T01:54:56;98061.78;;;12.86;100.00
20394;BME280;10356;50.544;9.642;2022-10-16T01:57:25;98057.94;;;12.90;100.00
20394;BME280;10356;50.544;9.642;2022-10-16T01:59:54;98046.91;;;12.96;100.00
20394;BME280;10356;50.544;9.642;2022-10-16T02:02:27;98059.72;;;12.99;100.00
20394;BME280;10356;50.544;9.642;2022-10-16T02:04:57;98056.13;;;13.00;100.00
20394;BME280;10356;50.544;9.642;2022-10-16T02:07:25;98058.50;;;13.03;100.00
20394;BME280;10356;50.544;9.642;2022-10-16T02:09:51;98058.09;;;13.07;100.00
20394;BME280;10356;50.544;9.642;2022-10-16T02:12:23;98046.53;;;13.10;100.00
20394;BME280;10356;50.544;9.642;2022-10-16T02:14:52;98044.59;;;13.12;100.00
20394;BME280;10356;50.544;9.642;2022-10-16T02:17:20;98034.56;;;13.17;100.00
20394;BME280;10356;50.544;9.642;2022-10-16T02:19:50;98044.72;;;13.20;100.00
20394;BME280;10356;50.544;9.642;2022-10-16T02:22:22;98038.94;;;13.26;100.00
20394;BME280;10356;50.544;9.642;2022-10-16T02:24:53;98042.22;;;13.28;100.00
20394;BME280;10356;50.544;9.642;2022-10-16T02:27:24;98045.25;;;13.33;100.00
20394;BME280;10356;50.544;9.642;2022-10-16T02:29:55;98054.88;;;13.42;100.00
20394;BME280;10356;50.544;9.642;2022-10-16T02:32:28;98063.69;;;13.51;100.00
20394;BME280;10356;50.544;9.642;2022-10-16T02:34:58;98070.44;;;13.53;100.00
20394;BME280;10356;50.544;9.642;2022-10-16T02:37:29;98062.97;;;13.58;100.00
20394;BME280;10356;50.544;9.642;2022-10-16T02:39:57;98062.97;;;13.58;100.00
20394;BME280;10356;50.544;9.642;2022-10-16T02:42:28;98065.59;;;13.58;100.00
20394;BME280;10356;50.544;9.642;2022-10-16T02:44:55;98073.44;;;13.58;100.00
20394;BME280;10356;50.544;9.642;2022-10-16T02:47:22;98073.56;;;13.66;100.00
20394;BME280;10356;50.544;9.642;2022-10-16T02:49:48;98066.69;;;13.65;100.00
20394;BME280;10356;50.544;9.642;2022-10-16T02:52:16;98071.50;;;13.60;100.00
20394;BME280;10356;50.544;9.642;2022-10-16T02:54:42;98062.13;;;13.58;100.00
20394;BME280;10356;50.544;9.642;2022-10-16T02:57:09;98062.28;;;13.56;100.00
20394;BME280;10356;50.544;9.642;2022-10-16T02:59:35;98063.94;;;13.57;100.00
20394;BME280;10356;50.544;9.642;2022-10-16T03:02:02;98067.09;;;13.61;100.00
20394;BME280;10356;50.544;9.642;2022-10-16T03:04:28;98070.94;;;13.66;100.00
20394;BME280;10356;50.544;9.642;2022-10-16T03:06:55;98073.56;;;13.66;100.00
20394;BME280;10356;50.544;9.642;2022-10-16T03:09:23;98077.00;;;13.67;100.00
20394;BME280;10356;50.544;9.642;2022-10-16T03:11:49;98068.03;;;13.69;100.00
20394;BME280;10356;50.544;9.642;2022-10-16T03:14:16;98064.59;;;13.69;100.00
20394;BME280;10356;50.544;9.642;2022-10-16T03:16:42;98059.78;;;13.64;100.00
20394;BME280;10356;50.544;9.642;2022-10-16T03:19:09;98064.19;;;13.64;100.00
20394;BME280;10356;50.544;9.642;2022-10-16T03:21:38;98062.50;;;13.72;100.00
20394;BME280;10356;50.544;9.642;2022-10-16T03:24:04;98057.00;;;13.75;100.00
20394;BME280;10356;50.544;9.642;2022-10-16T03:26:35;98049.38;;;13.82;100.00
20394;BME280;10356;50.544;9.642;2022-10-16T03:29:02;98050.06;;;13.84;100.00
20394;BME280;10356;50.544;9.642;2022-10-16T03:31:32;98060.78;;;13.90;100.00
20394;BME280;10356;50.544;9.642;2022-10-16T03:33:58;98078.41;;;13.98;100.00
20394;BME280;10356;50.544;9.642;2022-10-16T03:36:25;98086.25;;;13.98;100.00
20394;BME280;10356;50.544;9.642;2022-10-16T03:38:51;98077.81;;;14.04;100.00
20394;BME280;10356;50.544;9.642;2022-10-16T03:41:18;98085.00;;;14.02;100.00
20394;BME280;10356;50.544;9.642;2022-10-16T03:43:45;98086.25;;;14.07;100.00
20394;BME280;10356;50.544;9.642;2022-10-16T03:46:12;98092.44;;;14.06;100.00
20394;BME280;10356;50.544;9.642;2022-10-16T03:48:38;98089.53;;;14.09;100.00
20394;BME280;10356;50.544;9.642;2022-10-16T03:51:06;98108.84;;;14.08;100.00
20394;BME280;10356;50.544;9.642;2022-10-16T03:53:32;98099.56;;;14.14;100.00
20394;BME280;10356;50.544;9.642;2022-10-16T03:55:59;98100.66;;;14.21;100.00
20394;BME280;10356;50.544;9.642;2022-10-16T03:58:25;98101.75;;;14.18;100.00
20394;BME280;10356;50.544;9.642;2022-10-16T04:00:53;98107.00;;;14.18;100.00
20394;BME280;10356;50.544;9.642;2022-10-16T04:03:19;98114.75;;;14.20;100.00
20394;BME280;10356;50.544;9.642;2022-10-16T04:05:46;98118.84;;;14.22;100.00
20394;BME280;10356;50.544;9.642;2022-10-16T04:08:13;98127.69;;;14.21;100.00
20394;BME280;10356;50.544;9.642;2022-10-16T04:10:39;98139.69;;;14.14;100.00
20394;BME280;10356;50.544;9.642;2022-10-16T04:13:06;98140.00;;;14.11;100.00
20394;BME280;10356;50.544;9.642;2022-10-16T04:15:32;98122.91;;;14.07;100.00
20394;BME280;10356;50.544;9.642;2022-10-16T04:18:00;98147.56;;;14.14;100.00
20394;BME280;10356;50.544;9.642;2022-10-16T04:20:27;98144.25;;;14.12;100.00
20394;BME280;10356;50.544;9.642;2022-10-16T04:22:53;98150.88;;;14.16;100.00
20394;BME280;10356;50.544;9.642;2022-10-16T04:25:20;98132.16;;;14.11;100.00
20394;BME280;10356;50.544;9.642;2022-10-16T04:27:46;98140.00;;;14.11;100.00
20394;BME280;10356;50.544;9.642;2022-10-16T04:30:13;98137.06;;;14.14;100.00
20394;BME280;10356;50.544;9.642;2022-10-16T04:32:39;98139.03;;;14.12;100.00
20394;BME280;10356;50.544;9.642;2022-10-16T04:35:08;98144.00;;;14.15;100.00
20394;BME280;10356;50.544;9.642;2022-10-16T04:37:34;98155.84;;;14.10;100.00
20394;BME280;10356;50.544;9.642;2022-10-16T04:40:01;98146.72;;;14.14;100.00
20394;BME280;10356;50.544;9.642;2022-10-16T04:42:28;98157.78;;;14.08;100.00
20394;BME280;10356;50.544;9.642;2022-10-16T04:44:54;98161.91;;;14.10;100.00
20394;BME280;10356;50.544;9.642;2022-10-16T04:47:21;98161.25;;;14.08;100.00
20394;BME280;10356;50.544;9.642;2022-10-16T04:49:47;98168.25;;;14.08;100.00
20394;BME280;10356;50.544;9.642;2022-10-16T04:52:15;98176.00;;;14.09;100.00
20394;BME280;10356;50.544;9.642;2022-10-16T04:54:42;98168.81;;;14.11;100.00
20394;BME280;10356;50.544;9.642;2022-10-16T04:57:10;98166.78;;;14.05;100.00
20394;BME280;10356;50.544;9.642;2022-10-16T04:59:36;98170.75;;;14.09;100.00
20394;BME280;10356;50.544;9.642;2022-10-16T05:02:03;98177.09;;;14.07;100.00
20394;BME280;10356;50.544;9.642;2022-10-16T05:04:29;98176.81;;;14.10;100.00
20394;BME280;10356;50.544;9.642;2022-10-16T05:06:56;98164.97;;;14.06;100.00
20394;BME280;10356;50.544;9.642;2022-10-16T05:09:24;98170.09;;;14.07;100.00
20394;BME280;10356;50.544;9.642;2022-10-16T05:11:50;98177.09;;;14.07;100.00
20394;BME280;10356;50.544;9.642;2022-10-16T05:14:17;98168.84;;;14.02;100.00
20394;BME280;10356;50.544;9.642;2022-10-16T05:16:44;98164.72;;;13.99;100.00
20394;BME280;10356;50.544;9.642;2022-10-16T05:19:10;98169.56;;;13.94;100.00
20394;BME280;10356;50.544;9.642;2022-10-16T05:21:37;98168.88;;;13.92;100.00
20394;BME280;10356;50.544;9.642;2022-10-16T05:24:03;98170.53;;;13.93;100.00
20394;BME280;10356;50.544;9.642;2022-10-16T05:26:31;98168.03;;;13.92;100.00
20394;BME280;10356;50.544;9.642;2022-10-16T05:28:58;98170.81;;;13.81;100.00
20394;BME280;10356;50.544;9.642;2022-10-16T05:31:24;98158.44;;;13.73;100.00
20394;BME280;10356;50.544;9.642;2022-10-16T05:33:51;98169.19;;;13.70;100.00
20394;BME280;10356;50.544;9.642;2022-10-16T05:36:17;98152.41;;;13.63;100.00
20394;BME280;10356;50.544;9.642;2022-10-16T05:38:46;98169.47;;;13.58;100.00
20394;BME280;10356;50.544;9.642;2022-10-16T05:41:16;98160.13;;;13.55;100.00
20394;BME280;10356;50.544;9.642;2022-10-16T05:43:48;98176.09;;;13.52;100.00
20394;BME280;10356;50.544;9.642;2022-10-16T05:46:15;98178.56;;;13.54;100.00
20394;BME280;10356;50.544;9.642;2022-10-16T05:48:42;98188.91;;;13.55;100.00
20394;BME280;10356;50.544;9.642;2022-10-16T05:51:10;98187.94;;;13.56;100.00
20394;BME280;10356;50.544;9.642;2022-10-16T05:53:38;98187.94;;;13.56;100.00
20394;BME280;10356;50.544;9.642;2022-10-16T05:56:06;98192.47;;;13.54;100.00
20394;BME280;10356;50.544;9.642;2022-10-16T05:58:36;98192.34;;;13.56;100.00
20394;BME280;10356;50.544;9.642;2022-10-16T06:01:05;98189.06;;;13.63;100.00
20394;BME280;10356;50.544;9.642;2022-10-16T06:03:33;98178.84;;;13.60;100.00
20394;BME280;10356;50.544;9.642;2022-10-16T06:06:07;98192.63;;;13.62;100.00
20394;BME280;10356;50.544;9.642;2022-10-16T06:08:33;98196.91;;;13.63;100.00
20394;BME280;10356;50.544;9.642;2022-10-16T06:11:00;98199.38;;;13.65;100.00
20394;BME280;10356;50.544;9.642;2022-10-16T06:13:27;98198.53;;;13.64;100.00
20394;BME280;10356;50.544;9.642;2022-10-16T06:15:57;98195.94;;;13.64;100.00
20394;BME280;10356;50.544;9.642;2022-10-16T06:18:25;98210.69;;;13.65;100.00
20394;BME280;10356;50.544;9.642;2022-10-16T06:20:52;98201.59;;;13.69;100.00
20394;BME280;10356;50.544;9.642;2022-10-16T06:23:19;98205.00;;;13.70;100.00
20394;BME280;10356;50.544;9.642;2022-10-16T06:25:45;98200.34;;;13.73;100.00
20394;BME280;10356;50.544;9.642;2022-10-16T06:28:13;98200.03;;;13.76;100.00
20394;BME280;10356;50.544;9.642;2022-10-16T06:30:40;98211.63;;;13.83;100.00
20394;BME280;10356;50.544;9.642;2022-10-16T06:33:08;98209.69;;;13.85;100.00
20394;BME280;10356;50.544;9.642;2022-10-16T06:35:36;98220.19;;;13.85;100.00
20394;BME280;10356;50.544;9.642;2022-10-16T06:38:03;98208.56;;;13.88;100.00
20394;BME280;10356;50.544;9.642;2022-10-16T06:40:29;98217.94;;;13.90;100.00
20394;BME280;10356;50.544;9.642;2022-10-16T06:42:56;98209.38;;;13.98;100.00
20394;BME280;10356;50.544;9.642;2022-10-16T06:45:22;98223.72;;;14.03;100.00
20394;BME280;10356;50.544;9.642;2022-10-16T06:47:49;98230.34;;;14.07;100.00
20394;BME280;10356;50.544;9.642;2022-10-16T06:50:15;98221.50;;;14.08;100.00
20394;BME280;10356;50.544;9.642;2022-10-16T06:52:43;98219.88;;;14.07;100.00
20394;BME280;10356;50.544;9.642;2022-10-16T06:55:10;98227.28;;;14.12;100.00
20394;BME280;10356;50.544;9.642;2022-10-16T06:57:36;98219.56;;;14.10;100.00
20394;BME280;10356;50.544;9.642;2022-10-16T07:00:04;98220.41;;;14.11;100.00
20394;BME280;10356;50.544;9.642;2022-10-16T07:02:30;98236.50;;;14.16;100.00
20394;BME280;10356;50.544;9.642;2022-10-16T07:04:57;98236.66;;;14.14;100.00
20394;BME280;10356;50.544;9.642;2022-10-16T07:07:23;98241.63;;;14.17;100.00
20394;BME280;10356;50.544;9.642;2022-10-16T07:09:53;98252.13;;;14.17;100.00
20394;BME280;10356;50.544;9.642;2022-10-16T07:12:19;98255.41;;;14.19;100.00
20394;BME280;10356;50.544;9.642;2022-10-16T07:14:46;98260.50;;;14.21;100.00
20394;BME280;10356;50.544;9.642;2022-10-16T07:17:12;98264.81;;;14.22;100.00
20394;BME280;10356;50.544;9.642;2022-10-16T07:19:39;98257.31;;;14.27;100.00
20394;BME280;10356;50.544;9.642;2022-10-16T07:22:05;98274.03;;;14.36;100.00
20394;BME280;10356;50.544;9.642;2022-10-16T07:24:32;98266.00;;;14.47;100.00
20394;BME280;10356;50.544;9.642;2022-10-16T07:26:59;98271.66;;;14.52;100.00
20394;BME280;10356;50.544;9.642;2022-10-16T07:29:26;98267.47;;;14.59;100.00
20394;BME280;10356;50.544;9.642;2022-10-16T07:31:52;98263.84;;;14.69;100.00
20394;BME280;10356;50.544;9.642;2022-10-16T07:34:19;98266.72;;;14.76;100.00
20394;BME280;10356;50.544;9.642;2022-10-16T07:36:48;98275.38;;;14.86;100.00
20394;BME280;10356;50.544;9.642;2022-10-16T07:39:14;98275.34;;;14.95;100.00
20394;BME280;10356;50.544;9.642;2022-10-16T07:41:41;98273.91;;;15.01;100.00
20394;BME280;10356;50.544;9.642;2022-10-16T07:44:09;98279.13;;;15.10;100.00
20394;BME280;10356;50.544;9.642;2022-10-16T07:46:35;98270.69;;;15.17;100.00
20394;BME280;10356;50.544;9.642;2022-10-16T07:49:02;98276.53;;;15.28;100.00
20394;BME280;10356;50.544;9.642;2022-10-16T07:51:29;98278.16;;;15.39;100.00
20394;BME280;10356;50.544;9.642;2022-10-16T07:53:55;98288.34;;;15.51;100.00
20394;BME280;10356;50.544;9.642;2022-10-16T07:56:22;98294.53;;;15.50;100.00
20394;BME280;10356;50.544;9.642;2022-10-16T07:58:50;98300.19;;;15.55;100.00
20394;BME280;10356;50.544;9.642;2022-10-16T08:01:18;98297.00;;;15.52;100.00
20394;BME280;10356;50.544;9.642;2022-10-16T08:03:46;98303.19;;;15.60;100.00
20394;BME280;10356;50.544;9.642;2022-10-16T08:06:13;98304.53;;;15.64;100.00
20394;BME280;10356;50.544;9.642;2022-10-16T08:08:39;98294.94;;;15.73;100.00
20394;BME280;10356;50.544;9.642;2022-10-16T08:11:06;98299.75;;;15.77;100.00
20394;BME280;10356;50.544;9.642;2022-10-16T08:13:33;98302.31;;;15.87;100.00
20394;BME280;10356;50.544;9.642;2022-10-16T08:16:00;98313.16;;;15.92;100.00
20394;BME280;10356;50.544;9.642;2022-10-16T08:18:28;98323.31;;;16.05;100.00
20394;BME280;10356;50.544;9.642;2022-10-16T08:20:56;98320.91;;;16.11;100.00
20394;BME280;10356;50.544;9.642;2022-10-16T08:23:23;98328.03;;;16.19;100.00
20394;BME280;10356;50.544;9.642;2022-10-16T08:25:51;98319.84;;;16.22;100.00
20394;BME280;10356;50.544;9.642;2022-10-16T08:28:17;98319.97;;;16.38;100.00
20394;BME280;10356;50.544;9.642;2022-10-16T08:30:44;98335.25;;;16.52;100.00
20394;BME280;10356;50.544;9.642;2022-10-16T08:33:10;98338.38;;;16.55;100.00
20394;BME280;10356;50.544;9.642;2022-10-16T08:35:38;98334.25;;;16.53;100.00
20394;BME280;10356;50.544;9.642;2022-10-16T08:38:05;98341.47;;;16.51;100.00
20394;BME280;10356;50.544;9.642;2022-10-16T08:40:33;98344.00;;;16.43;100.00
20394;BME280;10356;50.544;9.642;2022-10-16T08:43:31;98345.44;;;16.37;100.00
20394;BME280;10356;50.544;9.642;2022-10-16T08:46:15;98347.63;;;16.42;100.00
20394;BME280;10356;50.544;9.642;2022-10-16T08:48:47;98353.69;;;16.42;100.00
20394;BME280;10356;50.544;9.642;2022-10-16T08:51:19;98356.03;;;16.45;100.00
20394;BME280;10356;50.544;9.642;2022-10-16T08:53:50;98362.81;;;16.48;100.00
20394;BME280;10356;50.544;9.642;2022-10-16T08:56:18;98353.41;;;16.45;100.00
20394;BME280;10356;50.544;9.642;2022-10-16T08:58:45;98353.66;;;16.52;100.00
20394;BME280;10356;50.544;9.642;2022-10-16T09:01:15;98356.13;;;16.53;100.00
20394;BME280;10356;50.544;9.642;2022-10-16T09:03:54;98362.13;;;16.63;100.00
20394;BME280;10356;50.544;9.642;2022-10-16T09:06:33;98369.69;;;16.66;100.00
20394;BME280;10356;50.544;9.642;2022-10-16T09:09:16;98365.94;;;16.69;100.00
20394;BME280;10356;50.544;9.642;2022-10-16T09:11:50;98374.88;;;16.76;100.00
20394;BME280;10356;50.544;9.642;2022-10-16T09:14:38;98381.94;;;16.75;100.00
20394;BME280;10356;50.544;9.642;2022-10-16T09:17:15;98386.38;;;16.75;100.00
20394;BME280;10356;50.544;9.642;2022-10-16T09:19:46;98384.72;;;16.74;100.00
20394;BME280;10356;50.544;9.642;2022-10-16T09:22:22;98390.59;;;16.68;100.00
20394;BME280;10356;50.544;9.642;2022-10-16T09:24:51;98395.72;;;16.69;100.00
20394;BME280;10356;50.544;9.642;2022-10-16T09:27:18;98404.56;;;16.68;100.00
20394;BME280;10356;50.544;9.642;2022-10-16T09:29:44;98402.78;;;16.69;100.00
20394;BME280;10356;50.544;9.642;2022-10-16T09:32:14;98406.41;;;16.68;100.00
20394;BME280;10356;50.544;9.642;2022-10-16T09:34:43;98402.94;;;16.67;100.00
20394;BME280;10356;50.544;9.642;2022-10-16T09:37:14;98405.66;;;16.58;100.00
20394;BME280;10356;50.544;9.642;2022-10-16T09:39:46;98404.59;;;16.51;100.00
20394;BME280;10356;50.544;9.642;2022-10-16T09:42:16;98411.09;;;16.47;100.00
20394;BME280;10356;50.544;9.642;2022-10-16T09:44:47;98422.06;;;16.42;100.00
20394;BME280;10356;50.544;9.642;2022-10-16T09:47:17;98414.66;;;16.38;100.00
20394;BME280;10356;50.544;9.642;2022-10-16T09:49:51;98428.09;;;16.35;100.00
20394;BME280;10356;50.544;9.642;2022-10-16T09:52:19;98429.38;;;16.31;100.00
20394;BME280;10356;50.544;9.642;2022-10-16T09:54:51;98420.06;;;16.19;100.00
20394;BME280;10356;50.544;9.642;2022-10-16T09:57:18;98430.06;;;16.15;100.00
20394;BME280;10356;50.544;9.642;2022-10-16T09:59:49;98434.19;;;16.18;100.00
20394;BME280;10356;50.544;9.642;2022-10-16T10:02:17;98439.38;;;16.27;100.00
20394;BME280;10356;50.544;9.642;2022-10-16T10:04:49;98442.84;;;16.45;100.00
20394;BME280;10356;50.544;9.642;2022-10-16T10:07:23;98452.84;;;16.77;100.00
20394;BME280;10356;50.544;9.642;2022-10-16T10:09:53;98451.47;;;17.16;100.00
20394;BME280;10356;50.544;9.642;2022-10-16T10:12:22;98445.06;;;17.44;100.00
20394;BME280;10356;50.544;9.642;2022-10-16T10:14:51;98459.19;;;17.61;100.00
20394;BME280;10356;50.544;9.642;2022-10-16T10:17:20;98460.63;;;17.55;100.00
20394;BME280;10356;50.544;9.642;2022-10-16T10:19:50;98462.91;;;17.50;100.00
20394;BME280;10356;50.544;9.642;2022-10-16T10:22:26;98452.13;;;17.44;100.00
20394;BME280;10356;50.544;9.642;2022-10-16T10:25:18;98454.44;;;17.39;100.00
20394;BME280;10356;50.544;9.642;2022-10-16T10:27:55;98456.38;;;17.37;100.00
20394;BME280;10356;50.544;9.642;2022-10-16T10:30:27;98463.50;;;17.44;100.00
20394;BME280;10356;50.544;9.642;2022-10-16T10:33:08;98460.44;;;17.49;100.00
20394;BME280;10356;50.544;9.642;2022-10-16T10:35:43;98469.69;;;17.53;100.00
20394;BME280;10356;50.544;9.642;2022-10-16T10:38:24;98468.19;;;17.50;100.00
20394;BME280;10356;50.544;9.642;2022-10-16T10:41:02;98465.13;;;17.45;100.00
20394;BME280;10356;50.544;9.642;2022-10-16T10:43:44;98472.69;;;17.40;100.00
20394;BME280;10356;50.544;9.642;2022-10-16T10:46:21;98477.75;;;17.34;100.00
20394;BME280;10356;50.544;9.642;2022-10-16T10:48:57;98474.41;;;17.24;100.00
20394;BME280;10356;50.544;9.642;2022-10-16T10:51:30;98473.91;;;17.20;100.00
20394;BME280;10356;50.544;9.642;2022-10-16T10:54:10;98467.53;;;17.05;100.00
20394;BME280;10356;50.544;9.642;2022-10-16T10:56:47;98467.16;;;17.00;100.00
20394;BME280;10356;50.544;9.642;2022-10-16T10:59:33;98461.84;;;16.92;100.00
20394;BME280;10356;50.544;9.642;2022-10-16T11:02:12;98468.75;;;16.93;100.00
20394;BME280;10356;50.544;9.642;2022-10-16T11:05:02;98462.34;;;16.96;100.00
20394;BME280;10356;50.544;9.642;2022-10-16T11:07:37;98467.91;;;17.10;100.00
20394;BME280;10356;50.544;9.642;2022-10-16T11:10:13;98475.91;;;17.26;100.00
20394;BME280;10356;50.544;9.642;2022-10-16T11:12:45;98474.56;;;17.22;100.00
20394;BME280;10356;50.544;9.642;2022-10-16T11:15:16;98475.19;;;17.16;100.00
20394;BME280;10356;50.544;9.642;2022-10-16T11:17:48;98479.84;;;17.22;100.00
20394;BME280;10356;50.544;9.642;2022-10-16T11:20:19;98473.56;;;17.23;100.00
20394;BME280;10356;50.544;9.642;2022-10-16T11:22:50;98469.81;;;17.26;100.00
20394;BME280;10356;50.544;9.642;2022-10-16T11:25:21;98468.69;;;17.28;100.00
20394;BME280;10356;50.544;9.642;2022-10-16T11:27:55;98468.34;;;17.31;100.00
20394;BME280;10356;50.544;9.642;2022-10-16T11:30:25;98464.75;;;17.32;100.00
20394;BME280;10356;50.544;9.642;2022-10-16T11:33:00;98461.13;;;17.33;100.00
20394;BME280;10356;50.544;9.642;2022-10-16T11:35:38;98465.72;;;17.49;100.00
20394;BME280;10356;50.544;9.642;2022-10-16T11:38:12;98460.81;;;17.62;100.00
20394;BME280;10356;50.544;9.642;2022-10-16T11:40:43;98461.75;;;17.87;100.00
20394;BME280;10356;50.544;9.642;2022-10-16T11:43:17;98459.47;;;18.00;100.00
20394;BME280;10356;50.544;9.642;2022-10-16T11:45:48;98467.94;;;18.11;100.00
20394;BME280;10356;50.544;9.642;2022-10-16T11:48:23;98449.69;;;18.26;100.00
20394;BME280;10356;50.544;9.642;2022-10-16T11:50:54;98455.34;;;18.55;100.00
20394;BME280;10356;50.544;9.642;2022-10-16T11:53:33;98454.69;;;19.09;100.00
20394;BME280;10356;50.544;9.642;2022-10-16T11:56:04;98453.59;;;19.67;100.00
20394;BME280;10356;50.544;9.642;2022-10-16T11:58:35;98449.66;;;20.01;100.00
20394;BME280;10356;50.544;9.642;2022-10-16T12:01:16;98450.28;;;20.03;97.38
20394;BME280;10356;50.544;9.642;2022-10-16T12:03:45;98455.78;;;19.94;95.33
20394;BME280;10356;50.544;9.642;2022-10-16T12:06:23;98457.66;;;19.85;96.59
20394;BME280;10356;50.544;9.642;2022-10-16T12:08:52;98457.56;;;19.63;96.86
20394;BME280;10356;50.544;9.642;2022-10-16T12:11:32;98455.72;;;20.02;96.95
20394;BME280;10356;50.544;9.642;2022-10-16T12:14:21;98457.44;;;20.34;95.31
20394;BME280;10356;50.544;9.642;2022-10-16T12:16:53;98449.66;;;20.32;94.04
20394;BME280;10356;50.544;9.642;2022-10-16T12:19:21;98444.25;;;20.26;93.89
20394;BME280;10356;50.544;9.642;2022-10-16T12:21:48;98450.91;;;20.14;93.80
20394;BME280;10356;50.544;9.642;2022-10-16T12:24:30;98452.00;;;20.27;93.56
20394;BME280;10356;50.544;9.642;2022-10-16T12:26:57;98450.06;;;20.13;94.11
20394;BME280;10356;50.544;9.642;2022-10-16T12:29:32;98452.53;;;20.15;93.61
20394;BME280;10356;50.544;9.642;2022-10-16T12:32:00;98453.06;;;20.41;93.49
20394;BME280;10356;50.544;9.642;2022-10-16T12:34:29;98450.63;;;20.62;92.08
20394;BME280;10356;50.544;9.642;2022-10-16T12:37:08;98455.41;;;20.58;89.55
20394;BME280;10356;50.544;9.642;2022-10-16T12:39:35;98452.56;;;20.06;92.28
20394;BME280;10356;50.544;9.642;2022-10-16T12:42:05;98454.84;;;19.87;93.21
20394;BME280;10356;50.544;9.642;2022-10-16T12:44:35;98472.41;;;19.72;94.81
20394;BME280;10356;50.544;9.642;2022-10-16T12:47:02;98466.53;;;19.46;96.66
20394;BME280;10356;50.544;9.642;2022-10-16T12:49:31;98463.75;;;19.47;96.92
20394;BME280;10356;50.544;9.642;2022-10-16T12:51:58;98459.13;;;19.41;96.59
20394;BME280;10356;50.544;9.642;2022-10-16T12:54:27;98471.81;;;19.29;97.84
20394;BME280;10356;50.544;9.642;2022-10-16T12:57:07;98467.19;;;19.32;98.24
20394;BME280;10356;50.544;9.642;2022-10-16T12:59:43;98474.97;;;19.25;97.55
20394;BME280;10356;50.544;9.642;2022-10-16T13:02:47;98479.59;;;19.15;98.50
20394;BME280;10356;50.544;9.642;2022-10-16T13:05:24;98485.72;;;19.07;99.13
20394;BME280;10356;50.544;9.642;2022-10-16T13:07:59;98487.69;;;19.21;96.79